Airfield :







YOU CAN JOIN US ON...

 
LOGIN :

Register | Disclaimer

   EN    FR    IT 

 









Legend :    VFR   Marginal VFR   IFR   Intensive IFR   Very Intensive IFR
Visi :
Ceiling :
>= 8 km
>= 3000ft
5 to 8 km
1000 to 3000 ft
1500m to 5 km
500 to 1000 ft
800 to 1500m
200 to 500 ft
< 800m
< 200 ft
Symbols :   Thunderstorms  Fog  Heavy snow  Heavy precipitations  Wind > 20 kt







- Airport Elevation : 124 ft
- IATA code : YGV


CYGV - Havre St Pierre

CURRENT METAR :
  • 220100Z AUTO 25005KT 9SM SCT240 06/05 A3000 RMK SLP161

EXPIRED METARs :
  • 220000Z AUTO 22004KT 9SM FEW240 08/06 A3001 RMK SLP166
  • 212300Z AUTO 27012G17KT 9SM SCT240 09/07 A3000 RMK SLP162

TAF TAF CYGV
Valid from the 22 at 02:00 until the 22 at 14:00 UTC


220138Z 2202/2214 25007KT P6SM FEW140
PROB30 2209/2211 1SM BR
FM221200 24008KT P6SM SCT030 RMK FCST BASED ON AUTO OBS. NXT FCST BY 220800Z
No reported NOTAMs for that airfield.



MET'MAP, your aeronautical weather chart ! - Copyright ORBIFLY December 2007 - Disclaimer

ORBIFLY MET'MAP TEAM :

Programming & Development : Alexandra Zaïnal
Concept & Development : Baudouin d'Aumeries
Co-Development & Prog : Marc-Olivier Méhu
Technical & hardware support : Manuel Goepfert

Contact : metmap@orbifly.com




SOURCES & CREDITS :

   NOAA